Time;durP1;ratioP1;P1;durP2;ratioP2;P2;SDS_P1;SDS_P2;PMS_P1;PMS_P2;Temp;Humidity;BMP_temperature;BMP_pressure;BME280_temperature;BME280_humidity;BME280_pressure;Samples;Min_cycle;Max_cycle;Signal;HPM_P1;HPM_P2
2022/01/13 00:00:59;;;;;;;13.70;9.00;;;;;;;;;;5026573;28;20443;-64
2022/01/13 00:03:25;;;;;;;13.03;9.13;;;;;;;;;;5027050;28;20904;-65
2022/01/13 00:05:51;;;;;;;11.27;9.63;;;;;;;;;;5026014;28;21005;-65
2022/01/13 00:08:17;;;;;;;12.60;10.27;;;;;;;;;;5026328;28;20459;-65
2022/01/13 00:10:43;;;;;;;11.23;9.87;;;;;;;;;;5023387;28;20497;-67
2022/01/13 00:13:13;;;;;;;19.37;10.27;;;;;;;;;;5026216;28;20455;-67
2022/01/13 00:16:22;;;;;;;12.50;9.00;;;;;;;;;;5029106;28;20489;-66
2022/01/13 00:18:39;;;;;;;16.87;9.43;;;;;;;;;;5027318;28;20542;-65
2022/01/13 00:21:16;;;;;;;13.83;9.47;;;;;;;;;;5022788;28;20447;-65
2022/01/13 00:23:45;;;;;;;10.53;7.67;;;;;;;;;;5028021;28;20435;-65
2022/01/13 00:26:24;;;;;;;12.53;9.20;;;;;;;;;;5027265;28;20435;-65
2022/01/13 00:28:51;;;;;;;14.07;9.40;;;;;;;;;;5028194;28;20437;-65
2022/01/13 00:31:22;;;;;;;14.93;10.30;;;;;;;;;;5023971;28;20435;-64
2022/01/13 00:33:50;;;;;;;16.40;11.27;;;;;;;;;;5024151;28;20454;-65
2022/01/13 00:36:17;;;;;;;27.27;15.80;;;;;;;;;;5027889;28;20509;-65
2022/01/13 00:38:43;;;;;;;16.57;10.37;;;;;;;;;;5027607;28;20954;-65
2022/01/13 00:41:09;;;;;;;18.93;9.83;;;;;;;;;;5026906;28;20482;-64
2022/01/13 00:43:39;;;;;;;12.60;9.80;;;;;;;;;;5027670;28;20474;-66
2022/01/13 00:46:05;;;;;;;18.70;11.60;;;;;;;;;;5028279;28;20435;-65
2022/01/13 00:48:31;;;;;;;14.30;8.87;;;;;;;;;;5025401;28;20447;-65
2022/01/13 00:50:58;;;;;;;15.50;9.57;;;;;;;;;;5022637;28;20467;-65
2022/01/13 00:53:26;;;;;;;10.60;8.53;;;;;;;;;;5027586;28;20431;-65
2022/01/13 00:55:58;;;;;;;10.47;8.67;;;;;;;;;;5028663;28;20450;-65
2022/01/13 00:58:26;;;;;;;9.40;7.37;;;;;;;;;;5027814;28;20466;-65
2022/01/13 01:00:52;;;;;;;9.90;8.10;;;;;;;;;;5026947;28;20500;-66
2022/01/13 01:03:18;;;;;;;9.60;7.60;;;;;;;;;;5025552;28;20427;-64
2022/01/13 01:05:44;;;;;;;11.03;8.93;;;;;;;;;;5026260;28;20853;-65
2022/01/13 01:08:10;;;;;;;11.43;9.07;;;;;;;;;;5027532;28;20954;-65
2022/01/13 01:10:37;;;;;;;16.63;9.10;;;;;;;;;;5027977;28;20901;-65
2022/01/13 01:13:19;;;;;;;9.60;8.47;;;;;;;;;;5025865;28;20446;-65
2022/01/13 01:15:49;;;;;;;14.30;8.63;;;;;;;;;;5027166;28;21042;-66
2022/01/13 01:23:32;;;;;;;12.57;7.93;;;;;;;;;;5025609;28;20458;-64
2022/01/13 01:26:20;;;;;;;10.00;7.57;;;;;;;;;;5021792;28;20443;-66
2022/01/13 01:28:51;;;;;;;9.87;7.43;;;;;;;;;;5027714;28;20441;-65
2022/01/13 01:31:25;;;;;;;10.80;7.83;;;;;;;;;;5027582;28;20439;-65
2022/01/13 01:34:05;;;;;;;7.87;7.10;;;;;;;;;;5024401;28;20820;-65
2022/01/13 01:36:32;;;;;;;9.83;8.20;;;;;;;;;;5025594;28;20445;-64
2022/01/13 01:38:59;;;;;;;8.97;7.77;;;;;;;;;;5027765;28;20601;-65
2022/01/13 01:41:26;;;;;;;13.80;9.97;;;;;;;;;;5026797;28;20478;-65
2022/01/13 01:43:54;;;;;;;19.03;7.70;;;;;;;;;;5027632;28;20509;-65
2022/01/13 01:46:20;;;;;;;9.80;7.97;;;;;;;;;;5022469;28;20983;-65
2022/01/13 01:48:46;;;;;;;15.03;8.40;;;;;;;;;;5024856;28;20519;-65
2022/01/13 01:51:12;;;;;;;11.17;9.00;;;;;;;;;;5027031;28;20514;-64
2022/01/13 01:53:38;;;;;;;11.07;8.70;;;;;;;;;;5030195;28;20508;-65
2022/01/13 01:56:04;;;;;;;15.37;9.50;;;;;;;;;;5027665;28;21106;-65
2022/01/13 01:58:30;;;;;;;15.40;8.87;;;;;;;;;;5030018;28;20487;-65
2022/01/13 02:00:56;;;;;;;12.93;8.37;;;;;;;;;;5030846;28;20505;-64
2022/01/13 02:03:26;;;;;;;13.60;8.77;;;;;;;;;;5030031;28;20447;-65
2022/01/13 02:05:52;;;;;;;9.43;7.80;;;;;;;;;;5027832;28;20458;-65
2022/01/13 02:08:18;;;;;;;10.00;8.23;;;;;;;;;;5030677;28;20478;-65
2022/01/13 02:10:45;;;;;;;10.57;8.60;;;;;;;;;;5031744;28;20962;-65
2022/01/13 02:13:13;;;;;;;9.67;8.43;;;;;;;;;;5030283;28;20946;-66
2022/01/13 02:18:38;;;;;;;10.63;8.40;;;;;;;;;;4995399;28;21041;-65
2022/01/13 02:21:05;;;;;;;9.50;7.30;;;;;;;;;;5029285;28;21062;-66
2022/01/13 02:23:38;;;;;;;9.90;7.80;;;;;;;;;;5031549;28;20916;-65
2022/01/13 02:26:09;;;;;;;9.07;7.30;;;;;;;;;;5028288;28;20494;-64
2022/01/13 02:28:35;;;;;;;9.00;7.60;;;;;;;;;;5028701;28;20454;-64
2022/01/13 02:31:02;;;;;;;10.00;8.07;;;;;;;;;;5028676;28;20473;-65
2022/01/13 02:33:28;;;;;;;15.57;8.33;;;;;;;;;;5030895;28;20493;-65
2022/01/13 02:35:54;;;;;;;11.47;8.10;;;;;;;;;;5029149;28;20438;-65
2022/01/13 02:38:20;;;;;;;11.83;8.77;;;;;;;;;;5029418;28;20895;-65
2022/01/13 02:40:51;;;;;;;9.03;7.60;;;;;;;;;;5027002;28;20536;-65
2022/01/13 02:43:18;;;;;;;10.87;7.67;;;;;;;;;;5031856;28;20762;-65
2022/01/13 02:46:02;;;;;;;11.43;9.23;;;;;;;;;;5030034;28;20450;-65
2022/01/13 02:48:30;;;;;;;9.50;7.97;;;;;;;;;;5027479;28;20435;-65
2022/01/13 02:50:56;;;;;;;11.50;7.90;;;;;;;;;;5029115;28;20435;-64
2022/01/13 02:53:23;;;;;;;11.60;8.43;;;;;;;;;;5030686;28;20443;-65
2022/01/13 02:55:49;;;;;;;11.77;7.93;;;;;;;;;;5029521;28;20771;-65
2022/01/13 02:58:16;;;;;;;14.20;8.70;;;;;;;;;;5027045;28;20859;-65
2022/01/13 03:00:42;;;;;;;12.73;8.00;;;;;;;;;;5042115;28;20518;-65
2022/01/13 03:03:08;;;;;;;9.60;7.73;;;;;;;;;;5029761;28;20492;-65
2022/01/13 03:05:38;;;;;;;11.00;8.23;;;;;;;;;;5028145;28;20435;-65
2022/01/13 03:08:05;;;;;;;10.47;8.57;;;;;;;;;;5028714;28;20435;-65
2022/01/13 03:10:31;;;;;;;9.30;7.87;;;;;;;;;;5027412;28;20959;-64
2022/01/13 03:12:58;;;;;;;7.30;6.60;;;;;;;;;;5027009;28;20438;-65
2022/01/13 03:15:24;;;;;;;10.80;7.63;;;;;;;;;;5029328;28;20443;-65
2022/01/13 03:17:50;;;;;;;12.10;8.40;;;;;;;;;;5026642;28;20443;-65
2022/01/13 03:20:16;;;;;;;13.80;7.80;;;;;;;;;;5027321;28;20483;-65
2022/01/13 03:22:42;;;;;;;11.70;7.90;;;;;;;;;;5030404;28;20518;-65
2022/01/13 03:25:09;;;;;;;12.30;8.67;;;;;;;;;;5028664;28;20514;-64
2022/01/13 03:27:36;;;;;;;11.50;8.77;;;;;;;;;;5027495;28;20967;-67
2022/01/13 03:30:08;;;;;;;12.00;7.47;;;;;;;;;;5025348;28;20804;-64
2022/01/13 03:32:35;;;;;;;7.90;6.33;;;;;;;;;;5027702;28;20445;-65
2022/01/13 03:35:01;;;;;;;10.27;8.13;;;;;;;;;;5029747;28;20919;-64
2022/01/13 03:37:27;;;;;;;10.47;7.00;;;;;;;;;;5028607;28;20432;-64
2022/01/13 03:39:53;;;;;;;8.90;8.00;;;;;;;;;;5023605;28;20510;-65
2022/01/13 03:42:19;;;;;;;10.70;7.50;;;;;;;;;;5030595;28;20501;-66
2022/01/13 03:44:46;;;;;;;10.97;7.53;;;;;;;;;;5029157;28;21169;-65
2022/01/13 03:47:14;;;;;;;12.00;8.33;;;;;;;;;;5028981;28;20454;-66
2022/01/13 03:49:40;;;;;;;8.07;7.30;;;;;;;;;;5022542;28;21040;-65
2022/01/13 03:52:24;;;;;;;10.10;8.13;;;;;;;;;;5029235;28;20939;-66
2022/01/13 03:55:09;;;;;;;10.77;8.13;;;;;;;;;;5026206;28;20427;-65
2022/01/13 03:57:54;;;;;;;9.03;8.13;;;;;;;;;;5026279;28;20458;-65
2022/01/13 04:00:23;;;;;;;11.90;8.90;;;;;;;;;;5026469;28;20505;-65
2022/01/13 04:02:50;;;;;;;11.63;8.37;;;;;;;;;;5024275;28;20554;-65
2022/01/13 04:05:16;;;;;;;6.80;6.10;;;;;;;;;;5028617;28;20986;-65
2022/01/13 04:07:42;;;;;;;8.40;7.50;;;;;;;;;;5024154;28;20454;-65
2022/01/13 04:10:42;;;;;;;7.93;7.13;;;;;;;;;;5026197;28;20447;-65
2022/01/13 04:13:21;;;;;;;8.10;6.60;;;;;;;;;;5027681;28;20490;-65
2022/01/13 04:15:47;;;;;;;10.77;8.40;;;;;;;;;;5027916;28;20766;-66
2022/01/13 04:18:13;;;;;;;9.17;7.07;;;;;;;;;;5028729;28;20439;-65
2022/01/13 04:20:39;;;;;;;8.53;7.30;;;;;;;;;;5027912;28;20954;-65
2022/01/13 04:23:05;;;;;;;11.03;7.77;;;;;;;;;;5025717;28;20898;-64
2022/01/13 04:25:34;;;;;;;8.20;7.40;;;;;;;;;;5024933;28;20447;-65
2022/01/13 04:28:03;;;;;;;11.10;7.13;;;;;;;;;;5029605;28;20899;-65
2022/01/13 04:30:44;;;;;;;8.13;7.03;;;;;;;;;;5026436;28;20943;-65
2022/01/13 04:33:12;;;;;;;10.80;7.40;;;;;;;;;;5028127;28;20441;-64
2022/01/13 04:35:38;;;;;;;8.60;7.07;;;;;;;;;;5027805;28;20435;-66
2022/01/13 04:38:04;;;;;;;9.80;7.67;;;;;;;;;;5027726;28;20427;-65
2022/01/13 04:40:30;;;;;;;11.13;8.07;;;;;;;;;;5027709;28;20522;-65
2022/01/13 04:42:56;;;;;;;8.80;6.97;;;;;;;;;;5026676;28;20518;-67
2022/01/13 04:45:23;;;;;;;12.03;8.53;;;;;;;;;;5024712;28;20443;-66
2022/01/13 04:47:50;;;;;;;8.27;7.30;;;;;;;;;;5028351;28;20431;-66
2022/01/13 04:50:16;;;;;;;8.20;6.00;;;;;;;;;;5026918;28;20447;-64
2022/01/13 04:52:42;;;;;;;11.90;6.80;;;;;;;;;;5025974;28;20446;-68
2022/01/13 04:55:09;;;;;;;13.10;7.57;;;;;;;;;;5027480;28;20442;-65
2022/01/13 04:57:35;;;;;;;7.70;6.43;;;;;;;;;;5025194;28;20489;-65
2022/01/13 05:00:01;;;;;;;8.60;6.40;;;;;;;;;;5027635;28;20479;-66
2022/01/13 05:02:27;;;;;;;10.00;8.27;;;;;;;;;;5028049;28;20438;-68
2022/01/13 05:04:53;;;;;;;12.90;8.80;;;;;;;;;;5027949;28;20443;-66
2022/01/13 05:07:19;;;;;;;10.03;8.37;;;;;;;;;;5026434;28;20470;-65
2022/01/13 05:09:45;;;;;;;10.30;8.37;;;;;;;;;;5024027;28;21021;-70
2022/01/13 05:12:10;;;;;;;12.37;9.27;;;;;;;;;;5027429;28;21013;-68
2022/01/13 05:14:36;;;;;;;11.30;8.33;;;;;;;;;;5027142;28;20454;-66
2022/01/13 05:17:11;;;;;;;11.17;10.07;;;;;;;;;;5025029;28;20441;-65
2022/01/13 05:19:42;;;;;;;10.93;7.90;;;;;;;;;;5027245;28;21022;-65
2022/01/13 05:24:37;;;;;;;12.00;8.20;;;;;;;;;;5027959;28;20585;-65
2022/01/13 05:27:03;;;;;;;13.80;8.10;;;;;;;;;;5030076;28;20915;-67
2022/01/13 05:29:29;;;;;;;10.60;7.60;;;;;;;;;;5029442;28;21796;-65
2022/01/13 05:31:55;;;;;;;11.93;7.50;;;;;;;;;;5031476;28;20530;-65
2022/01/13 05:34:21;;;;;;;12.27;8.40;;;;;;;;;;5029160;28;20486;-66
2022/01/13 05:36:47;;;;;;;15.53;8.10;;;;;;;;;;5031474;28;20435;-66
2022/01/13 05:39:13;;;;;;;10.80;7.53;;;;;;;;;;5029530;28;20832;-65
2022/01/13 05:41:39;;;;;;;10.80;7.60;;;;;;;;;;5031022;28;20474;-65
2022/01/13 05:44:05;;;;;;;9.93;7.93;;;;;;;;;;5031510;28;20580;-65
2022/01/13 05:46:31;;;;;;;9.20;8.30;;;;;;;;;;5026097;28;20530;-65
2022/01/13 05:48:57;;;;;;;8.50;7.70;;;;;;;;;;5029443;28;20926;-65
2022/01/13 05:51:24;;;;;;;10.07;7.67;;;;;;;;;;5030796;28;20942;-65
2022/01/13 05:53:50;;;;;;;12.10;8.03;;;;;;;;;;5030957;28;20922;-65
2022/01/13 05:56:16;;;;;;;9.83;7.53;;;;;;;;;;5026445;28;20446;-65
2022/01/13 05:58:42;;;;;;;8.17;7.30;;;;;;;;;;5030450;28;20479;-64
2022/01/13 06:01:08;;;;;;;9.73;6.97;;;;;;;;;;5030882;28;20441;-65
2022/01/13 06:03:34;;;;;;;7.90;6.97;;;;;;;;;;5030475;28;20427;-66
2022/01/13 06:06:00;;;;;;;14.27;7.93;;;;;;;;;;5029370;28;20947;-65
2022/01/13 06:08:26;;;;;;;10.27;7.40;;;;;;;;;;5025878;28;20906;-65
2022/01/13 06:10:52;;;;;;;15.27;8.67;;;;;;;;;;5030578;28;20433;-65
2022/01/13 06:13:18;;;;;;;10.83;7.37;;;;;;;;;;5030416;28;20439;-65
2022/01/13 06:15:44;;;;;;;13.07;8.70;;;;;;;;;;5029955;28;21644;-65
2022/01/13 06:18:14;;;;;;;23.33;9.80;;;;;;;;;;5025986;28;20455;-65
2022/01/13 06:20:40;;;;;;;8.23;7.10;;;;;;;;;;5031216;28;20526;-65
2022/01/13 06:23:07;;;;;;;12.20;8.03;;;;;;;;;;5030486;28;20423;-65
2022/01/13 06:25:33;;;;;;;16.97;8.40;;;;;;;;;;5031321;28;20448;-67
2022/01/13 06:27:59;;;;;;;12.33;9.53;;;;;;;;;;5027900;28;20435;-65
2022/01/13 06:30:25;;;;;;;22.30;11.77;;;;;;;;;;5028960;28;21174;-67
2022/01/13 06:32:51;;;;;;;20.70;11.43;;;;;;;;;;5026900;28;20826;-65
2022/01/13 06:35:17;;;;;;;10.87;8.13;;;;;;;;;;5031040;28;20438;-66
2022/01/13 06:37:43;;;;;;;11.97;8.17;;;;;;;;;;5025164;28;20478;-65
2022/01/13 06:40:11;;;;;;;12.20;8.20;;;;;;;;;;5028036;28;20489;-66
2022/01/13 06:42:40;;;;;;;7.60;6.87;;;;;;;;;;5029825;28;20993;-65
2022/01/13 06:45:06;;;;;;;7.60;6.10;;;;;;;;;;5031213;28;20431;-69
2022/01/13 06:47:32;;;;;;;8.13;6.93;;;;;;;;;;5028137;28;20515;-65
2022/01/13 06:49:58;;;;;;;21.73;14.47;;;;;;;;;;5025731;28;20486;-65
2022/01/13 06:52:24;;;;;;;23.10;14.30;;;;;;;;;;5028680;28;20458;-64
2022/01/13 06:54:52;;;;;;;10.27;8.20;;;;;;;;;;5030340;28;20439;-64
2022/01/13 06:57:18;;;;;;;14.47;6.00;;;;;;;;;;5027186;28;20431;-64
2022/01/13 06:59:44;;;;;;;6.97;6.27;;;;;;;;;;5024788;28;20522;-64
2022/01/13 07:02:10;;;;;;;8.50;7.60;;;;;;;;;;5027975;28;20419;-64
2022/01/13 07:04:36;;;;;;;13.70;8.40;;;;;;;;;;5030641;28;20431;-65
2022/01/13 07:07:02;;;;;;;11.57;8.77;;;;;;;;;;5029671;28;20431;-64
2022/01/13 07:09:28;;;;;;;11.67;9.27;;;;;;;;;;5026949;28;20459;-64
2022/01/13 07:11:54;;;;;;;13.40;9.90;;;;;;;;;;5025408;28;21068;-66
2022/01/13 07:14:20;;;;;;;13.70;9.03;;;;;;;;;;5030459;28;21640;-64
2022/01/13 07:16:46;;;;;;;22.20;11.90;;;;;;;;;;5023236;28;20896;-66
2022/01/13 07:19:13;;;;;;;13.80;9.47;;;;;;;;;;5027598;28;20482;-64
2022/01/13 07:21:43;;;;;;;12.30;9.50;;;;;;;;;;5028648;28;20516;-65
2022/01/13 07:24:09;;;;;;;21.03;12.90;;;;;;;;;;5026336;28;20448;-66
2022/01/13 07:26:35;;;;;;;25.27;14.93;;;;;;;;;;5024274;28;20431;-72
2022/01/13 07:29:01;;;;;;;15.63;11.90;;;;;;;;;;5029033;28;20423;-66
2022/01/13 07:31:28;;;;;;;14.70;11.37;;;;;;;;;;5023786;28;20439;-66
2022/01/13 07:33:54;;;;;;;20.67;12.20;;;;;;;;;;5021760;28;21097;-65
2022/01/13 07:36:20;;;;;;;13.97;10.63;;;;;;;;;;5025092;28;20526;-65
2022/01/13 07:38:46;;;;;;;18.37;11.47;;;;;;;;;;5025009;28;20491;-66
2022/01/13 07:41:12;;;;;;;14.67;11.03;;;;;;;;;;5026172;28;20874;-66
2022/01/13 07:43:41;;;;;;;15.43;11.20;;;;;;;;;;5029455;28;20927;-67
2022/01/13 07:46:10;;;;;;;11.80;9.60;;;;;;;;;;5022635;28;20534;-65
2022/01/13 07:48:36;;;;;;;15.60;11.50;;;;;;;;;;5026200;28;20443;-65
2022/01/13 07:51:02;;;;;;;13.80;11.63;;;;;;;;;;5026656;28;20427;-66
2022/01/13 07:53:28;;;;;;;18.07;11.57;;;;;;;;;;5020756;28;21024;-66
2022/01/13 07:55:54;;;;;;;24.23;13.80;;;;;;;;;;5026414;28;20470;-65
2022/01/13 07:58:20;;;;;;;19.03;13.13;;;;;;;;;;5025907;28;20431;-64
2022/01/13 08:00:46;;;;;;;20.60;13.00;;;;;;;;;;5025308;28;20538;-65
2022/01/13 08:03:15;;;;;;;18.70;11.80;;;;;;;;;;5027706;28;20608;-64
2022/01/13 08:05:41;;;;;;;15.03;10.50;;;;;;;;;;5025420;28;20462;-65
2022/01/13 08:08:07;;;;;;;16.20;9.17;;;;;;;;;;5028696;28;20423;-65
2022/01/13 08:10:33;;;;;;;14.40;11.20;;;;;;;;;;5025384;28;20443;-65
2022/01/13 08:12:59;;;;;;;12.77;9.90;;;;;;;;;;5027833;28;20470;-64
2022/01/13 08:15:26;;;;;;;13.67;9.50;;;;;;;;;;5027584;28;20451;-65
2022/01/13 08:20:36;;;;;;;15.57;9.40;;;;;;;;;;5025219;28;20501;-68
2022/01/13 08:23:03;;;;;;;14.30;9.57;;;;;;;;;;5029078;28;20974;-65
2022/01/13 08:25:30;;;;;;;17.93;10.80;;;;;;;;;;5027590;28;20856;-65
2022/01/13 08:27:56;;;;;;;16.53;11.03;;;;;;;;;;5027764;28;20525;-65
2022/01/13 08:30:22;;;;;;;19.90;12.47;;;;;;;;;;5026134;28;20447;-65
2022/01/13 08:32:48;;;;;;;27.70;15.80;;;;;;;;;;5028392;28;20814;-68
2022/01/13 08:35:14;;;;;;;24.77;14.77;;;;;;;;;;5026959;28;20760;-63
2022/01/13 08:37:41;;;;;;;26.03;16.30;;;;;;;;;;5028140;28;20813;-63
2022/01/13 08:40:08;;;;;;;29.20;17.30;;;;;;;;;;5025807;28;20994;-66
2022/01/13 08:42:35;;;;;;;21.40;15.17;;;;;;;;;;5028287;28;20481;-66
2022/01/13 08:45:02;;;;;;;19.20;13.47;;;;;;;;;;5027292;28;20501;-64
2022/01/13 08:47:28;;;;;;;22.60;15.50;;;;;;;;;;5027309;28;20512;-65
2022/01/13 08:49:54;;;;;;;35.30;20.80;;;;;;;;;;5025779;28;20727;-65
2022/01/13 08:52:21;;;;;;;33.63;19.77;;;;;;;;;;5025449;28;20434;-65
2022/01/13 08:54:50;;;;;;;36.47;18.70;;;;;;;;;;5026689;28;20458;-65
2022/01/13 08:57:16;;;;;;;31.43;17.63;;;;;;;;;;5027959;28;20805;-65
2022/01/13 08:59:42;;;;;;;25.33;14.83;;;;;;;;;;5026494;28;20495;-64
2022/01/13 09:02:09;;;;;;;19.60;13.70;;;;;;;;;;5033186;28;20709;-66
2022/01/13 09:04:35;;;;;;;13.80;10.73;;;;;;;;;;5034115;28;20533;-65
2022/01/13 09:07:01;;;;;;;18.70;10.37;;;;;;;;;;5033814;28;20431;-65
2022/01/13 09:09:27;;;;;;;16.00;10.30;;;;;;;;;;5030530;28;20442;-65
2022/01/13 09:11:53;;;;;;;16.83;11.20;;;;;;;;;;5034426;28;20966;-64
2022/01/13 09:14:24;;;;;;;19.70;13.47;;;;;;;;;;5034006;28;20439;-66
2022/01/13 09:16:51;;;;;;;11.40;9.67;;;;;;;;;;5033875;28;20512;-65
2022/01/13 09:19:18;;;;;;;18.40;10.33;;;;;;;;;;5032106;28;20486;-66
2022/01/13 09:21:44;;;;;;;13.63;11.20;;;;;;;;;;5032978;28;20779;-66
2022/01/13 09:24:12;;;;;;;14.83;11.13;;;;;;;;;;5032133;28;20431;-66
2022/01/13 09:26:39;;;;;;;18.33;11.87;;;;;;;;;;5033273;28;20799;-67
2022/01/13 09:29:06;;;;;;;17.43;11.13;;;;;;;;;;5031131;28;20439;-65
2022/01/13 09:31:32;;;;;;;14.47;10.13;;;;;;;;;;5032955;28;20966;-65
2022/01/13 09:34:01;;;;;;;14.73;10.67;;;;;;;;;;5034166;28;20489;-65
2022/01/13 09:36:27;;;;;;;14.33;10.63;;;;;;;;;;5033064;28;20504;-65
2022/01/13 09:38:53;;;;;;;16.10;11.00;;;;;;;;;;5032644;28;20513;-65
2022/01/13 09:41:21;;;;;;;11.77;9.83;;;;;;;;;;5034060;28;20541;-65
2022/01/13 09:43:47;;;;;;;29.73;15.20;;;;;;;;;;5033034;28;20439;-65
2022/01/13 09:46:13;;;;;;;14.60;11.60;;;;;;;;;;5033830;28;20443;-64
2022/01/13 09:48:40;;;;;;;17.90;14.10;;;;;;;;;;5031270;28;20432;-64
2022/01/13 09:51:06;;;;;;;55.47;25.17;;;;;;;;;;5033593;28;20190;-64
2022/01/13 09:53:32;;;;;;;20.10;12.43;;;;;;;;;;5033596;28;20497;-64
2022/01/13 09:55:58;;;;;;;13.40;10.40;;;;;;;;;;5034678;28;20871;-64
2022/01/13 09:58:24;;;;;;;22.63;15.17;;;;;;;;;;5032097;28;20521;-64
2022/01/13 10:00:50;;;;;;;15.33;10.70;;;;;;;;;;5032500;28;20796;-64
2022/01/13 10:03:17;;;;;;;21.30;11.20;;;;;;;;;;5034456;28;20423;-64
2022/01/13 10:06:08;;;;;;;15.33;9.13;;;;;;;;;;5031810;28;20439;-64
2022/01/13 10:08:40;;;;;;;15.90;9.40;;;;;;;;;;5030993;28;20439;-64
2022/01/13 10:11:25;;;;;;;11.47;10.27;;;;;;;;;;5032794;28;20439;-65
2022/01/13 10:16:56;;;;;;;16.23;11.27;;;;;;;;;;5022470;28;20530;-66
2022/01/13 10:19:32;;;;;;;15.73;10.50;;;;;;;;;;5027126;28;20482;-67
2022/01/13 10:22:01;;;;;;;14.73;10.43;;;;;;;;;;5029457;28;20949;-65
2022/01/13 10:24:28;;;;;;;13.40;10.37;;;;;;;;;;5030508;28;20435;-65
2022/01/13 10:27:00;;;;;;;14.10;11.17;;;;;;;;;;5030433;28;20472;-65
2022/01/13 10:29:36;;;;;;;14.80;11.70;;;;;;;;;;5029233;28;20479;-64
2022/01/13 10:32:02;;;;;;;16.17;10.20;;;;;;;;;;5029520;28;20419;-66
2022/01/13 10:34:28;;;;;;;20.03;11.87;;;;;;;;;;5030313;28;20438;-66
2022/01/13 10:37:14;;;;;;;21.47;11.97;;;;;;;;;;5030283;28;20434;-65
2022/01/13 10:40:01;;;;;;;16.10;11.07;;;;;;;;;;5028647;28;20540;-67
2022/01/13 10:44:59;;;;;;;17.10;11.27;;;;;;;;;;5029525;28;20485;-65
2022/01/13 10:47:30;;;;;;;12.30;10.27;;;;;;;;;;5029740;28;20474;-67
2022/01/13 10:50:00;;;;;;;16.97;11.73;;;;;;;;;;5029076;28;20424;-65
2022/01/13 10:52:27;;;;;;;16.40;10.90;;;;;;;;;;5030484;28;20435;-66
2022/01/13 10:54:53;;;;;;;16.60;11.13;;;;;;;;;;5026446;28;20478;-65
2022/01/13 10:57:21;;;;;;;15.40;11.80;;;;;;;;;;5023928;28;20853;-66
2022/01/13 10:59:47;;;;;;;18.20;13.30;;;;;;;;;;5027400;28;21026;-65
2022/01/13 11:02:13;;;;;;;11.97;10.70;;;;;;;;;;5028638;28;20443;-65
2022/01/13 11:04:39;;;;;;;19.73;15.67;;;;;;;;;;5027856;28;20447;-65
2022/01/13 11:07:25;;;;;;;15.10;11.70;;;;;;;;;;5028045;28;20415;-64
2022/01/13 11:09:53;;;;;;;11.77;9.63;;;;;;;;;;5027876;28;21581;-65
2022/01/13 11:12:28;;;;;;;14.13;11.60;;;;;;;;;;5024970;28;20526;-66
2022/01/13 11:14:59;;;;;;;17.90;10.80;;;;;;;;;;5028098;28;20439;-65
2022/01/13 11:17:26;;;;;;;31.00;18.33;;;;;;;;;;5027756;28;20435;-68
2022/01/13 11:19:52;;;;;;;20.13;13.87;;;;;;;;;;5021859;28;20495;-66
2022/01/13 11:22:18;;;;;;;19.87;12.80;;;;;;;;;;5026432;28;20439;-64
2022/01/13 11:24:44;;;;;;;16.60;11.80;;;;;;;;;;5022947;28;20475;-65
2022/01/13 11:27:11;;;;;;;19.50;14.97;;;;;;;;;;5024282;28;20926;-65
2022/01/13 11:29:37;;;;;;;16.13;13.43;;;;;;;;;;5026818;28;20447;-67
2022/01/13 11:32:03;;;;;;;18.30;12.80;;;;;;;;;;5023965;28;20782;-65
2022/01/13 11:34:29;;;;;;;16.43;11.47;;;;;;;;;;5027307;28;20450;-64
2022/01/13 11:36:55;;;;;;;18.13;13.03;;;;;;;;;;5023164;28;20538;-68
2022/01/13 11:39:36;;;;;;;19.63;12.73;;;;;;;;;;5023789;28;20583;-65
2022/01/13 11:42:03;;;;;;;20.13;14.60;;;;;;;;;;5025265;28;21127;-65
2022/01/13 11:44:29;;;;;;;19.50;13.80;;;;;;;;;;5023396;28;20438;-65
2022/01/13 11:46:55;;;;;;;21.17;13.87;;;;;;;;;;5023129;28;20444;-64
2022/01/13 11:49:30;;;;;;;20.23;13.50;;;;;;;;;;5025518;28;20537;-64
2022/01/13 11:52:00;;;;;;;18.57;14.20;;;;;;;;;;5028964;28;20469;-65
2022/01/13 11:54:31;;;;;;;20.10;15.07;;;;;;;;;;5023941;28;20931;-64
2022/01/13 11:57:16;;;;;;;22.03;14.57;;;;;;;;;;5025787;28;21006;-64
2022/01/13 12:00:00;;;;;;;21.47;15.20;;;;;;;;;;5040619;28;20923;-65
2022/01/13 12:02:32;;;;;;;23.37;14.80;;;;;;;;;;5025011;28;20457;-66
2022/01/13 12:04:59;;;;;;;26.03;16.10;;;;;;;;;;5027388;28;20436;-67
2022/01/13 12:07:39;;;;;;;25.97;17.30;;;;;;;;;;5027335;28;20427;-64
2022/01/13 12:10:06;;;;;;;36.53;17.50;;;;;;;;;;5028322;28;20423;-70
2022/01/13 12:12:33;;;;;;;26.33;16.97;;;;;;;;;;5028556;28;20443;-66
2022/01/13 12:15:22;;;;;;;22.60;16.23;;;;;;;;;;5023716;28;20457;-64
2022/01/13 12:17:53;;;;;;;27.70;15.20;;;;;;;;;;5019247;28;20452;-65
2022/01/13 12:23:40;;;;;;;20.03;15.67;;;;;;;;;;5018930;28;20473;-66
2022/01/13 12:26:25;;;;;;;32.73;19.50;;;;;;;;;;5024005;28;20768;-65
2022/01/13 12:29:09;;;;;;;35.40;19.53;;;;;;;;;;5028128;28;20458;-64
2022/01/13 12:31:35;;;;;;;25.07;15.80;;;;;;;;;;5022905;28;20943;-64
2022/01/13 12:34:01;;;;;;;25.50;17.57;;;;;;;;;;5027358;28;20452;-65
2022/01/13 12:36:27;;;;;;;27.40;16.80;;;;;;;;;;5026458;28;20470;-65
2022/01/13 12:38:59;;;;;;;31.20;16.20;;;;;;;;;;5024484;28;20475;-65
2022/01/13 12:41:28;;;;;;;32.70;16.60;;;;;;;;;;5024116;28;20482;-65
2022/01/13 12:44:20;;;;;;;24.50;16.83;;;;;;;;;;5026818;28;20431;-64
2022/01/13 12:46:40;;;;;;;27.97;17.50;;;;;;;;;;5025807;28;20861;-69
2022/01/13 12:49:07;;;;;;;28.07;19.57;;;;;;;;;;5026106;28;20436;-65
2022/01/13 12:51:33;;;;;;;31.77;18.03;;;;;;;;;;5025742;28;20961;-65
2022/01/13 12:54:00;;;;;;;21.40;15.23;;;;;;;;;;5027853;28;20514;-66
2022/01/13 12:56:27;;;;;;;23.83;17.60;;;;;;;;;;5027129;28;20445;-67
2022/01/13 12:58:57;;;;;;;26.93;17.53;;;;;;;;;;5027910;28;20470;-63
2022/01/13 13:01:24;;;;;;;26.10;15.40;;;;;;;;;;5025368;28;21014;-64
2022/01/13 13:04:08;;;;;;;27.67;14.43;;;;;;;;;;5028330;28;20472;-64
2022/01/13 13:06:35;;;;;;;21.47;14.90;;;;;;;;;;5025025;28;20524;-64
2022/01/13 13:09:06;;;;;;;24.10;16.97;;;;;;;;;;5022151;28;20541;-65
2022/01/13 13:11:33;;;;;;;23.20;15.03;;;;;;;;;;5025872;28;20791;-64
2022/01/13 13:14:00;;;;;;;25.47;16.23;;;;;;;;;;5026583;28;20453;-67
2022/01/13 13:16:26;;;;;;;23.90;16.57;;;;;;;;;;5021155;28;20505;-66
2022/01/13 13:18:52;;;;;;;22.97;17.07;;;;;;;;;;5028088;28;20565;-64
2022/01/13 13:21:18;;;;;;;24.60;16.03;;;;;;;;;;5023302;28;20875;-65
2022/01/13 13:23:45;;;;;;;25.43;18.17;;;;;;;;;;5020810;28;20539;-65
2022/01/13 13:26:16;;;;;;;23.37;15.43;;;;;;;;;;5026461;28;20809;-65
2022/01/13 13:28:46;;;;;;;20.93;14.67;;;;;;;;;;5022313;28;20443;-64
2022/01/13 13:31:18;;;;;;;22.20;13.77;;;;;;;;;;5022275;28;20451;-65
2022/01/13 13:33:50;;;;;;;27.23;15.90;;;;;;;;;;5026890;28;21922;-64
2022/01/13 13:36:18;;;;;;;20.80;15.80;;;;;;;;;;5020489;28;20440;-64
2022/01/13 13:38:48;;;;;;;28.57;18.50;;;;;;;;;;5023775;28;20449;-65
2022/01/13 13:41:15;;;;;;;33.60;18.33;;;;;;;;;;5021361;28;20565;-64
2022/01/13 13:43:41;;;;;;;34.43;19.27;;;;;;;;;;5022609;28;20927;-64
2022/01/13 13:46:07;;;;;;;24.10;16.23;;;;;;;;;;5022802;28;20438;-65
2022/01/13 13:48:33;;;;;;;23.83;16.83;;;;;;;;;;5030631;28;20939;-65
2022/01/13 13:50:59;;;;;;;24.03;16.00;;;;;;;;;;5023708;28;20466;-64
2022/01/13 13:53:25;;;;;;;25.90;17.73;;;;;;;;;;5031133;28;20928;-64
2022/01/13 13:55:56;;;;;;;32.00;16.37;;;;;;;;;;5026362;28;20501;-64
2022/01/13 13:58:22;;;;;;;22.27;15.53;;;;;;;;;;5031187;28;20606;-65
2022/01/13 14:00:48;;;;;;;23.20;15.60;;;;;;;;;;5027440;28;20478;-66
2022/01/13 14:03:21;;;;;;;20.87;15.30;;;;;;;;;;5022466;28;21182;-64
2022/01/13 14:05:47;;;;;;;25.10;16.20;;;;;;;;;;5030701;28;20419;-64
2022/01/13 14:08:13;;;;;;;25.97;17.80;;;;;;;;;;5027940;28;20447;-65
2022/01/13 14:10:39;;;;;;;33.77;22.57;;;;;;;;;;5027942;28;20795;-66
2022/01/13 14:13:05;;;;;;;34.50;23.00;;;;;;;;;;5028456;28;20539;-69
2022/01/13 14:15:38;;;;;;;39.47;25.00;;;;;;;;;;5024886;28;21038;-65
2022/01/13 14:18:12;;;;;;;26.37;17.10;;;;;;;;;;5027233;28;20478;-66
2022/01/13 14:20:38;;;;;;;27.60;17.17;;;;;;;;;;5027982;28;20529;-71
2022/01/13 14:23:24;;;;;;;26.80;17.07;;;;;;;;;;5028809;28;20423;-70
2022/01/13 14:25:51;;;;;;;26.17;17.53;;;;;;;;;;5028581;28;20540;-67
2022/01/13 14:28:21;;;;;;;25.47;16.67;;;;;;;;;;5025244;28;20435;-65
2022/01/13 14:30:48;;;;;;;25.50;18.00;;;;;;;;;;5026002;28;20435;-68
2022/01/13 14:33:24;;;;;;;27.80;17.23;;;;;;;;;;5029520;28;20439;-65
2022/01/13 14:35:59;;;;;;;34.27;18.60;;;;;;;;;;5022657;28;20450;-66
2022/01/13 14:38:34;;;;;;;21.57;16.90;;;;;;;;;;5028244;28;21226;-66
2022/01/13 14:41:00;;;;;;;27.40;18.33;;;;;;;;;;5024826;28;20498;-68
2022/01/13 14:43:26;;;;;;;22.13;16.63;;;;;;;;;;5023211;28;20443;-67
2022/01/13 14:46:10;;;;;;;35.30;19.07;;;;;;;;;;5028323;28;20865;-67
2022/01/13 14:48:37;;;;;;;30.30;18.30;;;;;;;;;;5030134;28;20957;-68
2022/01/13 14:51:06;;;;;;;29.90;19.20;;;;;;;;;;5024552;28;21032;-68
2022/01/13 14:53:33;;;;;;;37.50;21.20;;;;;;;;;;5027768;28;20537;-66
2022/01/13 14:55:59;;;;;;;38.30;21.57;;;;;;;;;;5029793;28;20431;-68